Lapine, Alabama
Current Conditions -  °F | °C
As of 9:53 PM on Sunday 25 Jan 2015 (Local Time) from KTOI Reporting Station
Few Clouds Few Clouds  
Wind Chill: 58°   Ceiling: Unl
Heat Index: 58°   Visibility: 10mi
Dew Point: 42°   Wind: 9mph
Humidity: 56%   Direction: 310°NW
Pressure: 29.84"   Gusts: 20mph
Location:  31.97°N, 86.28°W
Report Text: KTOI 260353Z AUTO 31008G17KT 10SM FEW026 FEW065 14/06 A2984 RMK AO2 SLP102 T01440056
Loading
Personal Weather Stations






























Interactive Weather Map New forecast layout! Learn more

10-Day Weather Forecast

Advertisements
Track Severe Weather on mobile